sensor_id;sensor_type;location;lat;lon;timestamp;pressure;altitude;pressure_sealevel;temperature;humidity
6528;BME280;3297;42.664;23.256;2022-07-21T00:02:05;50257.31;;;-139.84;45.46
6528;BME280;3297;42.664;23.256;2022-07-21T00:04:31;50249.53;;;-139.84;45.46
6528;BME280;3297;42.664;23.256;2022-07-21T00:06:57;50257.31;;;-139.84;45.78
6528;BME280;3297;42.664;23.256;2022-07-21T00:09:22;50267.03;;;-139.84;46.38
6528;BME280;3297;42.664;23.256;2022-07-21T00:11:48;50259.25;;;-139.84;46.18
6528;BME280;3297;42.664;23.256;2022-07-21T00:14:14;50253.41;;;-139.84;46.43
6528;BME280;3297;42.664;23.256;2022-07-21T00:16:40;50267.03;;;-139.84;46.60
6528;BME280;3297;42.664;23.256;2022-07-21T00:19:07;50245.66;;;-139.84;46.50
6528;BME280;3297;42.664;23.256;2022-07-21T00:21:34;50276.75;;;-139.84;47.21
6528;BME280;3297;42.664;23.256;2022-07-21T00:24:00;50235.94;;;-139.84;47.39
6528;BME280;3297;42.664;23.256;2022-07-21T00:26:25;50305.91;;;-139.84;47.21
6528;BME280;3297;42.664;23.256;2022-07-21T00:28:51;50280.63;;;-139.84;47.12
6528;BME280;3297;42.664;23.256;2022-07-21T00:31:16;50257.31;;;-139.84;47.51
6528;BME280;3297;42.664;23.256;2022-07-21T00:33:42;50212.59;;;-139.84;47.17
6528;BME280;3297;42.664;23.256;2022-07-21T00:36:08;50272.84;;;-139.84;47.54
6528;BME280;3297;42.664;23.256;2022-07-21T00:38:34;50292.28;;;-139.84;47.89
6528;BME280;3297;42.664;23.256;2022-07-21T00:41:00;50241.75;;;-139.84;47.34
6528;BME280;3297;42.664;23.256;2022-07-21T00:43:25;50249.53;;;-139.84;47.37
6528;BME280;3297;42.664;23.256;2022-07-21T00:45:55;50241.75;;;-139.84;47.56
6528;BME280;3297;42.664;23.256;2022-07-21T00:48:21;50276.75;;;-139.84;48.03
6528;BME280;3297;42.664;23.256;2022-07-21T00:50:46;50288.41;;;-139.84;48.28
6528;BME280;3297;42.664;23.256;2022-07-21T00:53:12;50292.28;;;-139.84;48.14
6528;BME280;3297;42.664;23.256;2022-07-21T00:55:42;50261.19;;;-139.84;48.91
6528;BME280;3297;42.664;23.256;2022-07-21T00:58:07;50259.25;;;-139.84;48.77
6528;BME280;3297;42.664;23.256;2022-07-21T01:00:33;50272.84;;;-139.84;48.62
6528;BME280;3297;42.664;23.256;2022-07-21T01:02:59;50302.00;;;-139.84;49.28
6528;BME280;3297;42.664;23.256;2022-07-21T01:05:24;50235.94;;;-139.84;49.45
6528;BME280;3297;42.664;23.256;2022-07-21T01:07:52;50226.22;;;-139.84;49.26
6528;BME280;3297;42.664;23.256;2022-07-21T01:10:21;50272.84;;;-139.84;49.16
6528;BME280;3297;42.664;23.256;2022-07-21T01:12:47;50292.28;;;-139.84;48.85
6528;BME280;3297;42.664;23.256;2022-07-21T01:15:14;50257.31;;;-139.84;50.07
6528;BME280;3297;42.664;23.256;2022-07-21T01:17:41;50228.16;;;-139.84;49.88
6528;BME280;3297;42.664;23.256;2022-07-21T01:20:09;50267.03;;;-139.84;49.73
6528;BME280;3297;42.664;23.256;2022-07-21T01:22:38;50278.69;;;-139.84;49.77
6528;BME280;3297;42.664;23.256;2022-07-21T01:25:04;50288.41;;;-139.84;50.36
6528;BME280;3297;42.664;23.256;2022-07-21T01:27:30;50257.31;;;-139.84;50.61
6528;BME280;3297;42.664;23.256;2022-07-21T01:29:56;50230.09;;;-139.84;50.80
6528;BME280;3297;42.664;23.256;2022-07-21T01:32:22;50253.41;;;-139.84;51.51
6528;BME280;3297;42.664;23.256;2022-07-21T01:34:48;50278.69;;;-139.84;51.36
6528;BME280;3297;42.664;23.256;2022-07-21T01:37:15;50272.84;;;-139.84;51.01
6528;BME280;3297;42.664;23.256;2022-07-21T01:39:47;50232.03;;;-139.84;50.79
6528;BME280;3297;42.664;23.256;2022-07-21T01:42:31;50307.84;;;-139.84;51.13
6528;BME280;3297;42.664;23.256;2022-07-21T01:44:56;50272.84;;;-139.84;51.92
6528;BME280;3297;42.664;23.256;2022-07-21T01:47:22;50251.47;;;-139.84;52.15
6528;BME280;3297;42.664;23.256;2022-07-21T01:49:48;50276.75;;;-139.84;52.13
6528;BME280;3297;42.664;23.256;2022-07-21T01:52:14;50241.75;;;-139.84;52.36
6528;BME280;3297;42.664;23.256;2022-07-21T01:54:40;50218.44;;;-139.84;52.69
6528;BME280;3297;42.664;23.256;2022-07-21T01:57:05;50272.84;;;-139.84;52.86
6528;BME280;3297;42.664;23.256;2022-07-21T01:59:31;50272.84;;;-139.84;52.93
6528;BME280;3297;42.664;23.256;2022-07-21T02:01:56;50233.97;;;-139.84;52.63
6528;BME280;3297;42.664;23.256;2022-07-21T02:04:22;50268.97;;;-139.84;53.24
6528;BME280;3297;42.664;23.256;2022-07-21T02:06:48;50241.75;;;-139.84;53.99
6528;BME280;3297;42.664;23.256;2022-07-21T02:09:13;50265.09;;;-139.84;54.22
6528;BME280;3297;42.664;23.256;2022-07-21T02:11:39;50253.41;;;-139.84;53.97
6528;BME280;3297;42.664;23.256;2022-07-21T02:14:05;50284.50;;;-139.84;54.10
6528;BME280;3297;42.664;23.256;2022-07-21T02:16:30;50253.41;;;-139.84;54.25
6528;BME280;3297;42.664;23.256;2022-07-21T02:18:56;50237.88;;;-139.84;54.00
6528;BME280;3297;42.664;23.256;2022-07-21T02:21:22;50282.56;;;-139.84;53.76
6528;BME280;3297;42.664;23.256;2022-07-21T02:23:47;50280.63;;;-139.84;54.09
6528;BME280;3297;42.664;23.256;2022-07-21T02:26:13;50282.56;;;-139.84;54.01
6528;BME280;3297;42.664;23.256;2022-07-21T02:28:39;50257.31;;;-139.84;54.04
6528;BME280;3297;42.664;23.256;2022-07-21T02:31:05;50261.19;;;-139.84;54.34
6528;BME280;3297;42.664;23.256;2022-07-21T02:33:31;50237.88;;;-139.84;54.40
6528;BME280;3297;42.664;23.256;2022-07-21T02:35:57;50259.25;;;-139.84;54.12
6528;BME280;3297;42.664;23.256;2022-07-21T02:38:22;50265.09;;;-139.84;54.15
6528;BME280;3297;42.664;23.256;2022-07-21T02:40:48;50235.94;;;-139.84;54.26
6528;BME280;3297;42.664;23.256;2022-07-21T02:43:14;50288.41;;;-139.84;54.26
6528;BME280;3297;42.664;23.256;2022-07-21T02:45:40;50249.53;;;-139.84;54.46
6528;BME280;3297;42.664;23.256;2022-07-21T02:48:09;50237.88;;;-139.84;54.75
6528;BME280;3297;42.664;23.256;2022-07-21T02:50:37;50245.66;;;-139.84;55.14
6528;BME280;3297;42.664;23.256;2022-07-21T02:53:05;50276.75;;;-139.84;54.53
6528;BME280;3297;42.664;23.256;2022-07-21T02:55:31;50272.84;;;-139.84;54.37
6528;BME280;3297;42.664;23.256;2022-07-21T02:58:25;50257.31;;;-139.84;53.97
6528;BME280;3297;42.664;23.256;2022-07-21T03:01:02;50249.53;;;-139.84;54.21
6528;BME280;3297;42.664;23.256;2022-07-21T03:03:31;50253.41;;;-139.84;54.29
6528;BME280;3297;42.664;23.256;2022-07-21T03:05:57;50298.13;;;-139.84;54.50
6528;BME280;3297;42.664;23.256;2022-07-21T03:08:24;50257.31;;;-139.84;54.75
6528;BME280;3297;42.664;23.256;2022-07-21T03:10:50;50284.50;;;-139.84;55.77
6528;BME280;3297;42.664;23.256;2022-07-21T03:13:17;50265.09;;;-139.84;55.67
6528;BME280;3297;42.664;23.256;2022-07-21T03:15:42;50280.63;;;-139.84;55.69
6528;BME280;3297;42.664;23.256;2022-07-21T03:18:08;50276.75;;;-139.84;55.85
6528;BME280;3297;42.664;23.256;2022-07-21T03:20:36;50284.50;;;-139.84;55.66
6528;BME280;3297;42.664;23.256;2022-07-21T03:23:02;50255.38;;;-139.84;55.68
6528;BME280;3297;42.664;23.256;2022-07-21T03:25:28;50290.34;;;-139.84;56.03
6528;BME280;3297;42.664;23.256;2022-07-21T03:27:54;50253.41;;;-139.84;56.04
6528;BME280;3297;42.664;23.256;2022-07-21T03:30:20;50270.91;;;-139.84;56.18
6528;BME280;3297;42.664;23.256;2022-07-21T03:32:47;50294.22;;;-139.84;56.43
6528;BME280;3297;42.664;23.256;2022-07-21T03:35:13;50268.97;;;-139.84;56.82
6528;BME280;3297;42.664;23.256;2022-07-21T03:37:51;50280.63;;;-139.84;57.06
6528;BME280;3297;42.664;23.256;2022-07-21T03:40:18;50249.53;;;-139.84;56.84
6528;BME280;3297;42.664;23.256;2022-07-21T03:42:44;50249.53;;;-139.84;56.65
6528;BME280;3297;42.664;23.256;2022-07-21T03:45:11;50259.25;;;-139.84;56.60
6528;BME280;3297;42.664;23.256;2022-07-21T03:47:37;50265.09;;;-139.84;56.54
6528;BME280;3297;42.664;23.256;2022-07-21T03:50:03;50296.19;;;-139.84;56.59
6528;BME280;3297;42.664;23.256;2022-07-21T03:52:29;50302.00;;;-139.84;56.57
6528;BME280;3297;42.664;23.256;2022-07-21T03:54:55;50272.84;;;-139.84;56.60
6528;BME280;3297;42.664;23.256;2022-07-21T03:57:47;50290.34;;;-139.84;56.45
6528;BME280;3297;42.664;23.256;2022-07-21T04:00:16;50280.63;;;-139.84;56.78
6528;BME280;3297;42.664;23.256;2022-07-21T04:02:42;50267.03;;;-139.84;56.94
6528;BME280;3297;42.664;23.256;2022-07-21T04:05:11;50272.84;;;-139.84;57.00
6528;BME280;3297;42.664;23.256;2022-07-21T04:07:41;50302.00;;;-139.84;56.87
6528;BME280;3297;42.664;23.256;2022-07-21T04:10:13;50276.75;;;-139.84;57.17
6528;BME280;3297;42.664;23.256;2022-07-21T04:12:39;50303.94;;;-139.84;57.39
6528;BME280;3297;42.664;23.256;2022-07-21T04:15:07;50259.25;;;-139.84;56.89
6528;BME280;3297;42.664;23.256;2022-07-21T04:17:34;50307.84;;;-139.84;56.23
6528;BME280;3297;42.664;23.256;2022-07-21T04:20:00;50298.13;;;-139.84;56.32
6528;BME280;3297;42.664;23.256;2022-07-21T04:22:26;50331.16;;;-139.84;55.81
6528;BME280;3297;42.664;23.256;2022-07-21T04:24:51;50276.75;;;-139.84;55.68
6528;BME280;3297;42.664;23.256;2022-07-21T04:27:17;50300.06;;;-139.84;55.72
6528;BME280;3297;42.664;23.256;2022-07-21T04:29:43;50303.94;;;-139.84;55.41
6528;BME280;3297;42.664;23.256;2022-07-21T04:32:08;50292.28;;;-139.84;55.30
6528;BME280;3297;42.664;23.256;2022-07-21T04:34:34;50325.34;;;-139.84;55.40
6528;BME280;3297;42.664;23.256;2022-07-21T04:36:59;50331.16;;;-139.84;54.98
6528;BME280;3297;42.664;23.256;2022-07-21T04:39:25;50307.84;;;-139.84;55.02
6528;BME280;3297;42.664;23.256;2022-07-21T04:41:50;50296.19;;;-139.84;54.93
6528;BME280;3297;42.664;23.256;2022-07-21T04:44:16;50315.63;;;-139.84;54.64
6528;BME280;3297;42.664;23.256;2022-07-21T04:46:42;50311.72;;;-139.84;54.37
6528;BME280;3297;42.664;23.256;2022-07-21T04:49:07;50327.28;;;-139.84;54.20
6528;BME280;3297;42.664;23.256;2022-07-21T04:51:33;50331.16;;;-139.84;54.34
6528;BME280;3297;42.664;23.256;2022-07-21T04:53:58;50274.78;;;-139.84;54.12
6528;BME280;3297;42.664;23.256;2022-07-21T04:56:24;50284.50;;;-139.84;54.06
6528;BME280;3297;42.664;23.256;2022-07-21T04:58:50;50311.72;;;-139.84;54.07
6528;BME280;3297;42.664;23.256;2022-07-21T05:01:15;50307.84;;;-139.84;54.04
6528;BME280;3297;42.664;23.256;2022-07-21T05:03:44;50354.47;;;-139.84;53.13
6528;BME280;3297;42.664;23.256;2022-07-21T05:06:09;50265.09;;;-139.84;52.66
6528;BME280;3297;42.664;23.256;2022-07-21T05:08:35;50300.06;;;-139.84;52.31
6528;BME280;3297;42.664;23.256;2022-07-21T05:11:01;50298.13;;;-139.84;52.28
6528;BME280;3297;42.664;23.256;2022-07-21T05:13:27;50307.84;;;-139.84;52.39
6528;BME280;3297;42.664;23.256;2022-07-21T05:15:52;50313.66;;;-139.84;51.69
6528;BME280;3297;42.664;23.256;2022-07-21T05:18:18;50325.34;;;-139.84;51.12
6528;BME280;3297;42.664;23.256;2022-07-21T05:20:43;50350.59;;;-139.84;50.44
6528;BME280;3297;42.664;23.256;2022-07-21T05:23:09;50294.22;;;-139.84;50.25
6528;BME280;3297;42.664;23.256;2022-07-21T05:25:34;50325.34;;;-139.84;50.25
6528;BME280;3297;42.664;23.256;2022-07-21T05:28:01;50327.28;;;-139.84;50.26
6528;BME280;3297;42.664;23.256;2022-07-21T05:30:27;50296.19;;;-139.84;50.06
6528;BME280;3297;42.664;23.256;2022-07-21T05:32:53;50325.34;;;-139.84;49.70
6528;BME280;3297;42.664;23.256;2022-07-21T05:35:18;50342.81;;;-139.84;49.73
6528;BME280;3297;42.664;23.256;2022-07-21T05:37:44;50333.09;;;-139.84;49.48
6528;BME280;3297;42.664;23.256;2022-07-21T05:40:11;50348.66;;;-139.84;49.47
6528;BME280;3297;42.664;23.256;2022-07-21T05:42:37;50331.16;;;-139.84;49.30
6528;BME280;3297;42.664;23.256;2022-07-21T05:45:03;50375.88;;;-139.84;49.17
6528;BME280;3297;42.664;23.256;2022-07-21T05:47:29;50340.88;;;-139.84;48.91
6528;BME280;3297;42.664;23.256;2022-07-21T05:49:57;50370.03;;;-139.84;48.83
6528;BME280;3297;42.664;23.256;2022-07-21T05:52:22;50362.25;;;-139.84;48.15
6528;BME280;3297;42.664;23.256;2022-07-21T05:54:48;50337.00;;;-139.84;47.89
6528;BME280;3297;42.664;23.256;2022-07-21T05:57:13;50360.31;;;-139.84;46.97
6528;BME280;3297;42.664;23.256;2022-07-21T05:59:39;50348.66;;;-139.84;46.68
6528;BME280;3297;42.664;23.256;2022-07-21T06:02:05;50377.81;;;-139.84;45.72
6528;BME280;3297;42.664;23.256;2022-07-21T06:04:30;50366.16;;;-139.84;44.82
6528;BME280;3297;42.664;23.256;2022-07-21T06:06:56;50364.19;;;-139.84;44.06
6528;BME280;3297;42.664;23.256;2022-07-21T06:09:22;50373.91;;;-139.84;43.36
6528;BME280;3297;42.664;23.256;2022-07-21T06:11:47;50406.97;;;-139.84;42.96
6528;BME280;3297;42.664;23.256;2022-07-21T06:14:13;50360.31;;;-139.84;42.78
6528;BME280;3297;42.664;23.256;2022-07-21T06:16:38;50405.03;;;-139.84;41.50
6528;BME280;3297;42.664;23.256;2022-07-21T06:19:07;50406.97;;;-139.84;40.80
6528;BME280;3297;42.664;23.256;2022-07-21T06:21:33;50420.56;;;-139.84;40.27
6528;BME280;3297;42.664;23.256;2022-07-21T06:23:59;50406.97;;;-139.84;39.67
6528;BME280;3297;42.664;23.256;2022-07-21T06:26:25;50389.47;;;-139.84;38.23
6528;BME280;3297;42.664;23.256;2022-07-21T06:28:50;50397.25;;;-139.84;37.87
6528;BME280;3297;42.664;23.256;2022-07-21T06:31:16;50412.78;;;-139.84;37.30
6528;BME280;3297;42.664;23.256;2022-07-21T06:33:42;50397.25;;;-139.84;36.56
6528;BME280;3297;42.664;23.256;2022-07-21T06:36:08;50393.34;;;-139.84;36.04
6528;BME280;3297;42.664;23.256;2022-07-21T06:38:34;50424.47;;;-139.84;35.37
6528;BME280;3297;42.664;23.256;2022-07-21T06:40:59;50424.47;;;-139.84;34.55
6528;BME280;3297;42.664;23.256;2022-07-21T06:43:25;50406.97;;;-139.84;34.40
6528;BME280;3297;42.664;23.256;2022-07-21T06:45:50;50436.13;;;-139.84;34.42
6528;BME280;3297;42.664;23.256;2022-07-21T06:48:16;50440.00;;;-139.84;34.25
6528;BME280;3297;42.664;23.256;2022-07-21T06:50:42;50432.22;;;-139.84;33.39
6528;BME280;3297;42.664;23.256;2022-07-21T06:53:08;50447.78;;;-139.84;33.26
6528;BME280;3297;42.664;23.256;2022-07-21T06:55:34;50422.50;;;-139.84;32.99
6528;BME280;3297;42.664;23.256;2022-07-21T06:58:16;50405.03;;;-139.84;32.83
6528;BME280;3297;42.664;23.256;2022-07-21T07:00:43;50428.34;;;-139.84;32.59
6528;BME280;3297;42.664;23.256;2022-07-21T07:03:09;50451.66;;;-139.84;32.94
6528;BME280;3297;42.664;23.256;2022-07-21T07:05:35;50451.66;;;-139.84;32.35
6528;BME280;3297;42.664;23.256;2022-07-21T07:08:01;50486.66;;;-139.84;32.00
6528;BME280;3297;42.664;23.256;2022-07-21T07:10:27;50424.47;;;-139.84;31.98
6528;BME280;3297;42.664;23.256;2022-07-21T07:12:53;50424.47;;;-139.84;32.33
6528;BME280;3297;42.664;23.256;2022-07-21T07:15:20;50443.91;;;-139.84;30.95
6528;BME280;3297;42.664;23.256;2022-07-21T07:17:45;50408.91;;;-139.84;31.70
6528;BME280;3297;42.664;23.256;2022-07-21T07:20:11;50455.56;;;-139.84;31.59
6528;BME280;3297;42.664;23.256;2022-07-21T07:22:36;50455.56;;;-139.84;31.21
6528;BME280;3297;42.664;23.256;2022-07-21T07:25:03;50457.50;;;-139.84;30.99
6528;BME280;3297;42.664;23.256;2022-07-21T07:27:28;50418.63;;;-139.84;30.47
6528;BME280;3297;42.664;23.256;2022-07-21T07:29:54;50436.13;;;-139.84;29.76
6528;BME280;3297;42.664;23.256;2022-07-21T07:32:20;50434.19;;;-139.84;29.67
6528;BME280;3297;42.664;23.256;2022-07-21T07:34:45;50457.50;;;-139.84;28.84
6528;BME280;3297;42.664;23.256;2022-07-21T07:37:11;50416.69;;;-139.84;28.70
6528;BME280;3297;42.664;23.256;2022-07-21T07:39:36;50441.94;;;-139.84;28.29
6528;BME280;3297;42.664;23.256;2022-07-21T07:42:04;50440.00;;;-139.84;28.25
6528;BME280;3297;42.664;23.256;2022-07-21T07:44:31;50443.91;;;-139.84;27.58
6528;BME280;3297;42.664;23.256;2022-07-21T07:46:57;50459.44;;;-139.84;27.46
6528;BME280;3297;42.664;23.256;2022-07-21T07:49:22;50438.06;;;-139.84;27.65
6528;BME280;3297;42.664;23.256;2022-07-21T07:51:48;50438.06;;;-139.84;27.02
6528;BME280;3297;42.664;23.256;2022-07-21T07:54:14;50443.91;;;-139.84;26.86
6528;BME280;3297;42.664;23.256;2022-07-21T07:56:40;50393.34;;;-139.84;26.61
6528;BME280;3297;42.664;23.256;2022-07-21T07:59:06;50401.13;;;-139.84;26.63
6528;BME280;3297;42.664;23.256;2022-07-21T08:01:32;50405.03;;;-139.84;27.08
6528;BME280;3297;42.664;23.256;2022-07-21T08:03:58;50420.56;;;-139.84;26.82
6528;BME280;3297;42.664;23.256;2022-07-21T08:06:24;50401.13;;;-139.84;26.04
6528;BME280;3297;42.664;23.256;2022-07-21T08:08:49;50424.47;;;-139.84;25.86
6528;BME280;3297;42.664;23.256;2022-07-21T08:11:15;50399.19;;;-139.84;26.00
6528;BME280;3297;42.664;23.256;2022-07-21T08:13:41;50467.22;;;-139.84;25.95
6528;BME280;3297;42.664;23.256;2022-07-21T08:16:07;50364.19;;;-139.84;25.77
6528;BME280;3297;42.664;23.256;2022-07-21T08:18:33;50397.25;;;-139.84;25.32
6528;BME280;3297;42.664;23.256;2022-07-21T08:20:58;50418.63;;;-139.84;25.61
6528;BME280;3297;42.664;23.256;2022-07-21T08:23:24;50430.28;;;-139.84;25.70
6528;BME280;3297;42.664;23.256;2022-07-21T08:25:50;50414.75;;;-139.84;25.70
6528;BME280;3297;42.664;23.256;2022-07-21T08:28:15;50416.69;;;-139.84;25.80
6528;BME280;3297;42.664;23.256;2022-07-21T08:30:41;50426.41;;;-139.84;25.22
6528;BME280;3297;42.664;23.256;2022-07-21T08:33:07;50381.69;;;-139.84;25.12
6528;BME280;3297;42.664;23.256;2022-07-21T08:35:33;50436.13;;;-139.84;25.23
6528;BME280;3297;42.664;23.256;2022-07-21T08:38:07;50416.69;;;-139.84;24.77
6528;BME280;3297;42.664;23.256;2022-07-21T08:40:36;50408.91;;;-139.84;25.28
6528;BME280;3297;42.664;23.256;2022-07-21T08:43:02;50410.84;;;-139.84;25.51
6528;BME280;3297;42.664;23.256;2022-07-21T08:45:28;50385.59;;;-139.84;25.65
6528;BME280;3297;42.664;23.256;2022-07-21T08:47:57;50401.13;;;-139.84;25.23
6528;BME280;3297;42.664;23.256;2022-07-21T08:50:27;50408.91;;;-139.84;25.19
6528;BME280;3297;42.664;23.256;2022-07-21T08:52:53;50395.31;;;-139.84;24.81
6528;BME280;3297;42.664;23.256;2022-07-21T08:55:18;50370.03;;;-139.84;24.99
6528;BME280;3297;42.664;23.256;2022-07-21T08:57:44;50381.69;;;-139.84;24.73
6528;BME280;3297;42.664;23.256;2022-07-21T09:00:10;50416.69;;;-139.84;24.64
6528;BME280;3297;42.664;23.256;2022-07-21T09:02:37;50408.91;;;-139.84;24.53
6528;BME280;3297;42.664;23.256;2022-07-21T09:05:06;50426.41;;;-139.84;24.71
6528;BME280;3297;42.664;23.256;2022-07-21T09:07:55;50387.53;;;-139.84;25.42
6528;BME280;3297;42.664;23.256;2022-07-21T09:10:26;50408.91;;;-139.84;25.27
6528;BME280;3297;42.664;23.256;2022-07-21T09:12:54;50381.69;;;-139.84;24.77
6528;BME280;3297;42.664;23.256;2022-07-21T09:15:22;50393.34;;;-139.84;25.44
6528;BME280;3297;42.664;23.256;2022-07-21T09:18:14;50397.25;;;-139.84;25.31
6528;BME280;3297;42.664;23.256;2022-07-21T09:20:51;50381.69;;;-139.84;25.14
6528;BME280;3297;42.664;23.256;2022-07-21T09:23:21;50377.81;;;-139.84;23.79
6528;BME280;3297;42.664;23.256;2022-07-21T09:25:56;50356.44;;;-139.84;24.22
6528;BME280;3297;42.664;23.256;2022-07-21T09:28:26;50408.91;;;-139.84;24.82
6528;BME280;3297;42.664;23.256;2022-07-21T09:31:06;50401.13;;;-139.84;24.49
6528;BME280;3297;42.664;23.256;2022-07-21T09:33:45;50408.91;;;-139.84;24.84
6528;BME280;3297;42.664;23.256;2022-07-21T09:36:15;50393.34;;;-139.84;24.60
6528;BME280;3297;42.664;23.256;2022-07-21T09:41:12;50385.59;;;-139.84;24.32
6528;BME280;3297;42.664;23.256;2022-07-21T09:43:44;50395.31;;;-139.84;24.61
6528;BME280;3297;42.664;23.256;2022-07-21T09:48:41;50377.81;;;-139.84;23.89
6528;BME280;3297;42.664;23.256;2022-07-21T09:51:34;50410.84;;;-139.84;23.59
6528;BME280;3297;42.664;23.256;2022-07-21T09:54:08;50391.41;;;-139.84;24.14
6528;BME280;3297;42.664;23.256;2022-07-21T09:56:36;50375.88;;;-139.84;24.19
6528;BME280;3297;42.664;23.256;2022-07-21T09:59:04;50387.53;;;-139.84;23.92
6528;BME280;3297;42.664;23.256;2022-07-21T10:01:30;50399.19;;;-139.84;23.91
6528;BME280;3297;42.664;23.256;2022-07-21T10:03:59;50331.16;;;-139.84;23.72
6528;BME280;3297;42.664;23.256;2022-07-21T10:06:27;50385.59;;;-139.84;23.66
6528;BME280;3297;42.664;23.256;2022-07-21T10:08:54;50370.03;;;-139.84;23.29
6528;BME280;3297;42.664;23.256;2022-07-21T10:11:21;50350.59;;;-139.84;24.29
6528;BME280;3297;42.664;23.256;2022-07-21T10:13:47;50366.16;;;-139.84;23.81
6528;BME280;3297;42.664;23.256;2022-07-21T10:16:13;50379.75;;;-139.84;23.60
6528;BME280;3297;42.664;23.256;2022-07-21T10:19:04;50370.03;;;-139.84;23.96
6528;BME280;3297;42.664;23.256;2022-07-21T10:24:09;50383.63;;;-139.84;23.17
6528;BME280;3297;42.664;23.256;2022-07-21T10:26:35;50389.47;;;-139.84;23.91
6528;BME280;3297;42.664;23.256;2022-07-21T10:29:00;50338.94;;;-139.84;23.85
6528;BME280;3297;42.664;23.256;2022-07-21T10:31:26;50364.19;;;-139.84;23.57
6528;BME280;3297;42.664;23.256;2022-07-21T10:33:57;50364.19;;;-139.84;24.08
6528;BME280;3297;42.664;23.256;2022-07-21T10:41:46;50385.59;;;-139.84;23.24
6528;BME280;3297;42.664;23.256;2022-07-21T10:57:36;50387.53;;;-139.84;22.74
6528;BME280;3297;42.664;23.256;2022-07-21T11:00:28;50416.69;;;-139.84;23.18
6528;BME280;3297;42.664;23.256;2022-07-21T11:03:02;50350.59;;;-139.84;23.19
6528;BME280;3297;42.664;23.256;2022-07-21T11:05:30;50356.44;;;-139.84;23.36
6528;BME280;3297;42.664;23.256;2022-07-21T11:08:18;50377.81;;;-139.84;23.29
6528;BME280;3297;42.664;23.256;2022-07-21T11:10:51;50373.91;;;-139.84;23.37
6528;BME280;3297;42.664;23.256;2022-07-21T11:13:19;50366.16;;;-139.84;23.86
6528;BME280;3297;42.664;23.256;2022-07-21T11:15:54;50346.72;;;-139.84;23.60
6528;BME280;3297;42.664;23.256;2022-07-21T11:18:22;50397.25;;;-139.84;23.80
6528;BME280;3297;42.664;23.256;2022-07-21T11:21:10;50354.47;;;-139.84;24.07
6528;BME280;3297;42.664;23.256;2022-07-21T11:23:42;50352.53;;;-139.84;24.13
6528;BME280;3297;42.664;23.256;2022-07-21T11:26:08;50360.31;;;-139.84;23.84
6528;BME280;3297;42.664;23.256;2022-07-21T11:28:35;50346.72;;;-139.84;23.96
6528;BME280;3297;42.664;23.256;2022-07-21T11:31:15;50360.31;;;-139.84;23.61
6528;BME280;3297;42.664;23.256;2022-07-21T11:33:44;50354.47;;;-139.84;23.62
6528;BME280;3297;42.664;23.256;2022-07-21T11:36:10;50373.91;;;-139.84;23.69
6528;BME280;3297;42.664;23.256;2022-07-21T11:38:36;50354.47;;;-139.84;24.03
6528;BME280;3297;42.664;23.256;2022-07-21T11:41:18;50354.47;;;-139.84;24.50
6528;BME280;3297;42.664;23.256;2022-07-21T11:43:45;50331.16;;;-139.84;24.56
6528;BME280;3297;42.664;23.256;2022-07-21T11:46:11;50342.81;;;-139.84;24.33
6528;BME280;3297;42.664;23.256;2022-07-21T11:48:37;50331.16;;;-139.84;24.53
6528;BME280;3297;42.664;23.256;2022-07-21T11:51:03;50340.88;;;-139.84;24.32
6528;BME280;3297;42.664;23.256;2022-07-21T11:53:29;50366.16;;;-139.84;24.35
6528;BME280;3297;42.664;23.256;2022-07-21T11:55:55;50371.97;;;-139.84;23.66
6528;BME280;3297;42.664;23.256;2022-07-21T11:58:20;50358.38;;;-139.84;24.14
6528;BME280;3297;42.664;23.256;2022-07-21T12:00:47;50346.72;;;-139.84;24.76
6528;BME280;3297;42.664;23.256;2022-07-21T12:03:13;50356.44;;;-139.84;25.19
6528;BME280;3297;42.664;23.256;2022-07-21T12:05:40;50383.63;;;-139.84;25.06
6528;BME280;3297;42.664;23.256;2022-07-21T12:08:06;50354.47;;;-139.84;24.97
6528;BME280;3297;42.664;23.256;2022-07-21T12:10:32;50344.75;;;-139.84;24.67
6528;BME280;3297;42.664;23.256;2022-07-21T12:13:00;50381.69;;;-139.84;24.39
6528;BME280;3297;42.664;23.256;2022-07-21T12:15:28;50340.88;;;-139.84;24.13
6528;BME280;3297;42.664;23.256;2022-07-21T12:18:03;50329.22;;;-139.84;24.41
6528;BME280;3297;42.664;23.256;2022-07-21T12:20:38;50364.19;;;-139.84;25.16
6528;BME280;3297;42.664;23.256;2022-07-21T12:23:28;50315.63;;;-139.84;24.45
6528;BME280;3297;42.664;23.256;2022-07-21T12:25:55;50370.03;;;-139.84;25.43
6528;BME280;3297;42.664;23.256;2022-07-21T12:28:47;50335.06;;;-139.84;25.11
6528;BME280;3297;42.664;23.256;2022-07-21T12:31:16;50340.88;;;-139.84;25.15
6528;BME280;3297;42.664;23.256;2022-07-21T12:33:46;50323.38;;;-139.84;25.15
6528;BME280;3297;42.664;23.256;2022-07-21T12:36:12;50354.47;;;-139.84;25.89
6528;BME280;3297;42.664;23.256;2022-07-21T12:38:43;50348.66;;;-139.84;26.18
6528;BME280;3297;42.664;23.256;2022-07-21T12:41:15;50327.28;;;-139.84;26.11
6528;BME280;3297;42.664;23.256;2022-07-21T12:43:41;50342.81;;;-139.84;25.64
6528;BME280;3297;42.664;23.256;2022-07-21T12:46:15;50342.81;;;-139.84;25.78
6528;BME280;3297;42.664;23.256;2022-07-21T12:48:43;50370.03;;;-139.84;25.47
6528;BME280;3297;42.664;23.256;2022-07-21T12:51:20;50358.38;;;-139.84;25.43
6528;BME280;3297;42.664;23.256;2022-07-21T12:53:47;50358.38;;;-139.84;26.07
6528;BME280;3297;42.664;23.256;2022-07-21T12:56:19;50346.72;;;-139.84;26.44
6528;BME280;3297;42.664;23.256;2022-07-21T12:58:45;50311.72;;;-139.84;26.43
6528;BME280;3297;42.664;23.256;2022-07-21T13:01:12;50319.50;;;-139.84;26.19
6528;BME280;3297;42.664;23.256;2022-07-21T13:03:38;50368.09;;;-139.84;25.87
6528;BME280;3297;42.664;23.256;2022-07-21T13:06:05;50319.50;;;-139.84;25.67
6528;BME280;3297;42.664;23.256;2022-07-21T13:08:32;50331.16;;;-139.84;25.72
6528;BME280;3297;42.664;23.256;2022-07-21T13:10:58;50362.25;;;-139.84;26.07
6528;BME280;3297;42.664;23.256;2022-07-21T13:13:25;50354.47;;;-139.84;25.74
6528;BME280;3297;42.664;23.256;2022-07-21T13:15:51;50342.81;;;-139.84;25.45
6528;BME280;3297;42.664;23.256;2022-07-21T13:18:17;50350.59;;;-139.84;25.88
6528;BME280;3297;42.664;23.256;2022-07-21T13:20:42;50338.94;;;-139.84;25.94